createdAt,value
2022-11-20T00:01:36.091Z,0.20
2022-11-20T00:04:04.267Z,0.20
2022-11-20T00:06:32.523Z,0.20
2022-11-20T00:09:02.424Z,0.20
2022-11-20T00:11:32.643Z,0.20
2022-11-20T00:14:03.657Z,0.20
2022-11-20T00:16:35.319Z,0.20
2022-11-20T00:19:03.690Z,0.20
2022-11-20T00:21:32.651Z,0.20
2022-11-20T00:24:00.972Z,0.20
2022-11-20T00:26:31.115Z,0.20
2022-11-20T00:29:02.498Z,0.20
2022-11-20T00:31:31.607Z,0.20
2022-11-20T00:34:00.997Z,0.20
2022-11-20T00:36:33.386Z,0.20
2022-11-20T00:39:02.118Z,0.20
2022-11-20T00:41:31.662Z,0.20
2022-11-20T00:44:00.151Z,0.20
2022-11-20T00:46:30.236Z,0.20
2022-11-20T00:49:00.079Z,0.20
2022-11-20T00:51:29.642Z,0.20
2022-11-20T00:53:58.779Z,0.20
2022-11-20T00:56:27.079Z,0.20
2022-11-20T00:58:55.180Z,0.20
2022-11-20T01:01:26.067Z,0.20
2022-11-20T01:03:56.711Z,0.20
2022-11-20T01:06:29.159Z,0.20
2022-11-20T01:08:59.964Z,0.20
2022-11-20T01:11:30.990Z,0.20
2022-11-20T01:14:02.762Z,0.20
2022-11-20T01:16:34.455Z,0.20
2022-11-20T01:19:06.376Z,0.20
2022-11-20T01:21:38.894Z,0.20
2022-11-20T01:24:09.720Z,0.20
2022-11-20T01:26:41.107Z,0.20
2022-11-20T01:29:14.511Z,0.20
2022-11-20T01:31:43.626Z,0.20
2022-11-20T01:34:15.835Z,0.20
2022-11-20T01:36:46.307Z,0.25
2022-11-20T01:39:18.580Z,0.30
2022-11-20T01:42:09.863Z,0.30
2022-11-20T01:44:58.499Z,0.20
2022-11-20T01:47:35.385Z,0.20
2022-11-20T01:50:16.478Z,0.30
2022-11-20T01:52:52.860Z,0.20
2022-11-20T01:55:27.053Z,0.30
2022-11-20T01:57:55.381Z,0.30
2022-11-20T02:00:24.091Z,0.20
2022-11-20T02:02:57.075Z,0.20
2022-11-20T02:05:31.501Z,0.22
2022-11-20T02:08:02.387Z,0.20
2022-11-20T02:10:31.577Z,0.30
2022-11-20T02:13:16.805Z,0.20
2022-11-20T02:15:45.980Z,0.20
2022-11-20T02:18:17.067Z,0.20
2022-11-20T02:20:48.858Z,0.20
2022-11-20T02:23:30.301Z,0.20
2022-11-20T02:26:01.910Z,0.30
2022-11-20T02:28:30.095Z,0.20
2022-11-20T02:30:58.426Z,0.22
2022-11-20T02:33:26.480Z,0.20
2022-11-20T02:35:54.659Z,0.20
2022-11-20T02:38:23.306Z,0.20
2022-11-20T02:40:55.356Z,0.30
2022-11-20T02:43:25.515Z,0.30
2022-11-20T02:45:53.600Z,0.30
2022-11-20T02:48:22.398Z,0.20
2022-11-20T02:50:52.654Z,0.20
2022-11-20T02:53:20.726Z,0.20
2022-11-20T02:55:48.731Z,0.20
2022-11-20T02:58:16.819Z,0.20
2022-11-20T03:00:46.372Z,0.20
2022-11-20T03:03:14.419Z,0.20
2022-11-20T03:05:42.490Z,0.20
2022-11-20T03:08:10.541Z,0.20
2022-11-20T03:10:38.603Z,0.20
2022-11-20T03:13:06.654Z,0.20
2022-11-20T03:15:34.734Z,0.20
2022-11-20T03:18:04.199Z,0.20
2022-11-20T03:20:34.058Z,0.20
2022-11-20T03:23:02.354Z,0.20
2022-11-20T03:25:30.452Z,0.20
2022-11-20T03:27:58.500Z,0.20
2022-11-20T03:30:30.583Z,0.20
2022-11-20T03:32:59.135Z,0.20
2022-11-20T03:35:28.656Z,0.20
2022-11-20T03:37:56.708Z,0.20
2022-11-20T03:40:24.763Z,0.20
2022-11-20T03:42:52.852Z,0.20
2022-11-20T03:45:21.259Z,0.20
2022-11-20T03:47:49.543Z,0.20
2022-11-20T03:50:17.819Z,0.20
2022-11-20T03:52:47.385Z,0.20
2022-11-20T03:55:15.491Z,0.10
2022-11-20T03:57:43.536Z,0.20
2022-11-20T04:00:13.647Z,0.20
2022-11-20T04:02:41.718Z,0.10
2022-11-20T04:05:10.387Z,0.20
2022-11-20T04:07:38.604Z,0.20
2022-11-20T04:10:09.367Z,0.20
2022-11-20T04:12:37.455Z,0.20
2022-11-20T04:15:06.470Z,0.20
2022-11-20T04:17:34.573Z,0.10
2022-11-20T04:20:02.844Z,0.20
2022-11-20T04:22:30.906Z,0.20
2022-11-20T04:24:58.960Z,0.20
2022-11-20T04:27:28.375Z,0.20
2022-11-20T04:29:56.428Z,0.10
2022-11-20T04:32:24.488Z,0.20
2022-11-20T04:34:52.711Z,0.20
2022-11-20T04:37:20.887Z,0.20
2022-11-20T04:39:48.982Z,0.20
2022-11-20T04:42:32.264Z,0.20
2022-11-20T04:45:01.824Z,0.20
2022-11-20T04:47:29.903Z,0.20
2022-11-20T04:49:58.003Z,0.20
2022-11-20T04:52:26.122Z,0.20
2022-11-20T04:54:54.706Z,0.20
2022-11-20T04:57:22.858Z,0.20
2022-11-20T04:59:50.993Z,0.20
2022-11-20T05:02:20.878Z,0.20
2022-11-20T05:04:50.802Z,0.20
2022-11-20T05:07:19.299Z,0.20
2022-11-20T05:09:47.390Z,0.20
2022-11-20T05:12:15.453Z,0.10
2022-11-20T05:14:43.509Z,0.10
2022-11-20T05:17:13.411Z,0.20
2022-11-20T05:19:42.844Z,0.20
2022-11-20T05:22:10.898Z,0.20
2022-11-20T05:24:39.025Z,0.20
2022-11-20T05:27:07.088Z,0.17
2022-11-20T05:29:35.169Z,0.20
2022-11-20T05:32:03.247Z,0.20
2022-11-20T05:34:31.327Z,0.20
2022-11-20T05:37:02.183Z,0.10
2022-11-20T05:39:30.259Z,0.20
2022-11-20T05:42:12.298Z,0.10
2022-11-20T05:44:40.532Z,0.20
2022-11-20T05:47:08.613Z,0.10
2022-11-20T05:49:36.651Z,0.17
2022-11-20T05:52:06.303Z,0.20
2022-11-20T05:54:34.630Z,0.20
2022-11-20T05:57:02.819Z,0.10
2022-11-20T05:59:30.918Z,0.10
2022-11-20T06:01:59.046Z,0.20
2022-11-20T06:04:27.307Z,0.20
2022-11-20T06:06:55.427Z,0.20
2022-11-20T06:09:24.839Z,0.10
2022-11-20T06:11:52.906Z,0.20
2022-11-20T06:14:21.049Z,0.20
2022-11-20T06:16:49.102Z,0.20
2022-11-20T06:19:17.547Z,0.20
2022-11-20T06:21:45.607Z,0.10
2022-11-20T06:24:13.939Z,0.20
2022-11-20T06:26:43.363Z,0.20
2022-11-20T06:29:11.547Z,0.20
2022-11-20T06:31:40.060Z,0.10
2022-11-20T06:34:08.860Z,0.20
2022-11-20T06:36:37.064Z,0.20
2022-11-20T06:39:05.759Z,0.20
2022-11-20T06:41:33.844Z,0.10
2022-11-20T06:44:03.239Z,0.17
2022-11-20T06:46:31.311Z,0.10
2022-11-20T06:48:59.720Z,0.17
2022-11-20T06:51:27.762Z,0.10
2022-11-20T06:53:56.182Z,0.20
2022-11-20T06:56:24.230Z,0.20
2022-11-20T06:58:52.327Z,0.20
2022-11-20T07:01:21.735Z,0.20
2022-11-20T07:03:54.406Z,0.20
2022-11-20T07:06:22.721Z,0.10
2022-11-20T07:08:53.338Z,0.10
2022-11-20T07:11:21.579Z,0.10
2022-11-20T07:13:53.318Z,0.20
2022-11-20T07:16:22.761Z,0.10
2022-11-20T07:18:51.291Z,0.20
2022-11-20T07:21:19.651Z,0.10
2022-11-20T07:23:47.955Z,0.20
2022-11-20T07:26:16.329Z,0.20
2022-11-20T07:28:47.281Z,0.20
2022-11-20T07:31:18.978Z,0.20
2022-11-20T07:33:49.264Z,0.20
2022-11-20T07:36:17.383Z,0.10
2022-11-20T07:38:45.443Z,0.10
2022-11-20T07:41:13.504Z,0.17
2022-11-20T07:43:41.911Z,0.15
2022-11-20T07:46:10.076Z,0.20
2022-11-20T07:48:38.161Z,0.10
2022-11-20T07:51:07.994Z,0.20
2022-11-20T07:53:36.029Z,0.10
2022-11-20T07:56:05.278Z,0.20
2022-11-20T07:58:35.293Z,0.10
2022-11-20T08:01:07.897Z,0.10
2022-11-20T08:03:38.653Z,0.20
2022-11-20T08:06:09.696Z,0.10
2022-11-20T08:08:42.471Z,0.20
2022-11-20T08:11:28.574Z,0.20
2022-11-20T08:14:14.665Z,0.10
2022-11-20T08:16:45.089Z,0.20
2022-11-20T08:19:14.147Z,0.10
2022-11-20T08:21:44.146Z,0.10
2022-11-20T08:24:13.536Z,0.20
2022-11-20T08:26:42.574Z,0.20
2022-11-20T08:29:10.693Z,0.20
2022-11-20T08:31:40.203Z,0.20
2022-11-20T08:34:09.607Z,0.10
2022-11-20T08:36:38.687Z,0.20
2022-11-20T08:39:08.106Z,0.20
2022-11-20T08:41:37.668Z,0.20
2022-11-20T08:44:08.802Z,0.10
2022-11-20T08:46:39.331Z,0.20
2022-11-20T08:49:09.577Z,0.10
2022-11-20T08:51:38.421Z,0.10
2022-11-20T08:54:08.846Z,0.13
2022-11-20T08:56:37.969Z,0.10
2022-11-20T08:59:37.279Z,0.10
2022-11-20T09:01:54.247Z,0.10
2022-11-20T09:04:22.354Z,0.10
2022-11-20T09:06:51.984Z,0.10
2022-11-20T09:09:22.183Z,0.20
2022-11-20T09:11:51.042Z,0.10
2022-11-20T09:14:19.151Z,0.20
2022-11-20T09:16:47.744Z,0.10
2022-11-20T09:19:47.878Z,0.10
2022-11-20T09:22:06.721Z,0.10
2022-11-20T09:24:36.190Z,0.10
2022-11-20T09:27:06.291Z,0.10
2022-11-20T09:29:34.442Z,0.10
2022-11-20T09:32:02.487Z,0.15
2022-11-20T09:34:30.514Z,0.10
2022-11-20T09:37:01.559Z,0.20
2022-11-20T09:39:32.654Z,0.10
2022-11-20T09:42:34.717Z,0.10
2022-11-20T09:45:22.619Z,0.10
2022-11-20T09:48:06.953Z,0.10
2022-11-20T09:50:42.082Z,0.10
2022-11-20T09:53:25.807Z,0.20
2022-11-20T09:55:54.166Z,0.10
2022-11-20T09:58:35.832Z,0.10
2022-11-20T10:01:14.112Z,0.10
2022-11-20T10:03:56.087Z,0.10
2022-11-20T10:06:32.182Z,0.10
2022-11-20T10:09:20.864Z,0.10
2022-11-20T10:11:57.023Z,0.10
2022-11-20T10:14:40.958Z,0.10
2022-11-20T10:17:25.375Z,0.10
2022-11-20T10:20:18.196Z,0.10
2022-11-20T10:23:08.745Z,0.10
2022-11-20T10:25:41.887Z,0.10
2022-11-20T10:28:30.861Z,0.20
2022-11-20T10:31:10.094Z,0.10
2022-11-20T10:34:05.429Z,0.10
2022-11-20T10:36:38.278Z,0.10
2022-11-20T10:39:19.008Z,0.10
2022-11-20T10:41:53.314Z,0.10
2022-11-20T10:44:38.284Z,0.15
2022-11-20T10:47:15.134Z,0.10
2022-11-20T10:49:45.205Z,0.10
2022-11-20T10:52:27.475Z,0.10
2022-11-20T10:55:03.866Z,0.10
2022-11-20T10:57:53.898Z,0.10
2022-11-20T11:00:22.179Z,0.10
2022-11-20T11:02:54.000Z,0.13
2022-11-20T11:05:38.301Z,0.10
2022-11-20T11:08:12.759Z,0.10
2022-11-20T11:10:49.892Z,0.10
2022-11-20T11:13:26.475Z,0.10
2022-11-20T11:15:55.688Z,0.10
2022-11-20T11:18:30.874Z,0.10
2022-11-20T11:21:02.371Z,0.10
2022-11-20T11:23:37.193Z,0.10
2022-11-20T11:26:09.007Z,0.10
2022-11-20T11:28:37.036Z,0.10
2022-11-20T11:31:05.171Z,0.10
2022-11-20T11:33:35.641Z,0.10
2022-11-20T11:36:18.549Z,0.10
2022-11-20T11:38:47.131Z,0.10
2022-11-20T11:41:22.111Z,0.10
2022-11-20T11:44:13.297Z,0.10
2022-11-20T11:46:46.203Z,0.10
2022-11-20T11:49:21.184Z,0.10
2022-11-20T11:52:09.560Z,0.10
2022-11-20T11:54:47.150Z,0.10
2022-11-20T11:57:25.640Z,0.10
2022-11-20T12:00:04.007Z,0.10
2022-11-20T12:02:40.942Z,0.10
2022-11-20T12:05:20.909Z,0.10
2022-11-20T12:07:53.722Z,0.10
2022-11-20T12:10:30.919Z,0.10
2022-11-20T12:13:22.653Z,0.10
2022-11-20T12:15:51.150Z,0.10
2022-11-20T12:18:22.842Z,0.10
2022-11-20T12:21:11.881Z,0.10
2022-11-20T12:23:59.675Z,0.10
2022-11-20T12:26:52.376Z,0.10
2022-11-20T12:29:36.347Z,0.10
2022-11-20T12:32:40.065Z,0.10
2022-11-20T12:35:31.254Z,0.10
2022-11-20T12:38:28.673Z,0.10
2022-11-20T12:41:06.219Z,0.10
2022-11-20T12:44:04.339Z,0.10
2022-11-20T12:46:44.638Z,0.10
2022-11-20T12:49:31.856Z,0.10
2022-11-20T12:52:30.211Z,0.10
2022-11-20T12:55:30.877Z,0.10
2022-11-20T12:58:12.987Z,0.10
2022-11-20T13:01:02.699Z,0.10
2022-11-20T13:03:44.311Z,0.10
2022-11-20T13:06:18.210Z,0.10
2022-11-20T13:08:54.891Z,0.10
2022-11-20T13:11:36.124Z,0.15
2022-11-20T13:14:26.545Z,0.10
2022-11-20T13:17:06.114Z,0.10
2022-11-20T13:19:35.651Z,0.10
2022-11-20T13:22:03.784Z,0.10
2022-11-20T13:24:34.607Z,0.10
2022-11-20T13:27:19.092Z,0.10
2022-11-20T13:30:00.169Z,0.15
2022-11-20T13:32:32.908Z,0.10
2022-11-20T13:35:04.127Z,0.10
2022-11-20T13:37:35.437Z,0.10
2022-11-20T13:40:24.903Z,0.10
2022-11-20T13:43:17.947Z,0.10
2022-11-20T13:45:59.145Z,0.10
2022-11-20T13:48:33.125Z,0.10
2022-11-20T13:51:17.091Z,0.10
2022-11-20T13:54:38.629Z,0.10
2022-11-20T13:57:27.568Z,0.10
2022-11-20T14:00:04.099Z,0.10
2022-11-20T14:02:39.404Z,0.10
2022-11-20T14:05:15.387Z,0.10
2022-11-20T14:07:45.484Z,0.10
2022-11-20T14:10:29.917Z,0.10
2022-11-20T14:12:59.952Z,0.10
2022-11-20T14:15:32.550Z,0.10
2022-11-20T14:18:12.831Z,0.10
2022-11-20T14:20:42.095Z,0.10
2022-11-20T14:23:12.726Z,0.10
2022-11-20T14:25:46.851Z,0.10
2022-11-20T14:28:27.659Z,0.10
2022-11-20T14:30:58.869Z,0.10
2022-11-20T14:33:29.430Z,0.10
2022-11-20T14:36:00.188Z,0.10
2022-11-20T14:38:33.252Z,0.10
2022-11-20T14:41:09.684Z,0.10
2022-11-20T14:43:38.947Z,0.10
2022-11-20T14:46:12.455Z,0.10
2022-11-20T14:48:46.352Z,0.10
2022-11-20T14:51:27.599Z,0.10
2022-11-20T14:53:55.747Z,0.10
2022-11-20T14:56:25.948Z,0.10
2022-11-20T14:59:00.485Z,0.20
2022-11-20T15:01:32.695Z,0.10
2022-11-20T15:04:11.051Z,0.10
2022-11-20T15:06:55.020Z,0.10
2022-11-20T15:09:23.741Z,0.10
2022-11-20T15:11:59.626Z,0.10
2022-11-20T15:14:30.307Z,0.10
2022-11-20T15:17:00.866Z,0.10
2022-11-20T15:19:29.407Z,0.10
2022-11-20T15:21:57.468Z,0.10
2022-11-20T15:24:26.007Z,0.10
2022-11-20T15:26:54.317Z,0.10
2022-11-20T15:29:25.219Z,0.10
2022-11-20T15:31:55.144Z,0.10
2022-11-20T15:34:24.805Z,0.10
2022-11-20T15:37:02.256Z,0.10
2022-11-20T15:39:30.415Z,0.10
2022-11-20T15:41:58.475Z,0.10
2022-11-20T15:44:26.576Z,0.10
2022-11-20T15:46:54.814Z,0.10
2022-11-20T15:49:24.639Z,0.10
2022-11-20T15:51:53.633Z,0.10
2022-11-20T15:54:24.606Z,0.13
2022-11-20T15:56:54.139Z,0.10
2022-11-20T15:59:22.375Z,0.10
2022-11-20T16:01:50.479Z,0.10
2022-11-20T16:04:19.961Z,0.10
2022-11-20T16:06:50.809Z,0.10
2022-11-20T16:09:18.924Z,0.10
2022-11-20T16:11:46.958Z,0.10
2022-11-20T16:14:33.150Z,0.10
2022-11-20T16:17:02.527Z,0.10
2022-11-20T16:19:30.576Z,0.10
2022-11-20T16:22:03.242Z,0.10
2022-11-20T16:24:31.528Z,0.10
2022-11-20T16:26:59.838Z,0.10
2022-11-20T16:29:27.897Z,0.10
2022-11-20T16:31:55.961Z,0.10
2022-11-20T16:34:24.230Z,0.10
2022-11-20T16:36:52.345Z,0.10
2022-11-20T16:39:23.825Z,0.10
2022-11-20T16:41:52.491Z,0.10
2022-11-20T16:44:22.228Z,0.10
2022-11-20T16:46:50.572Z,0.10
2022-11-20T16:49:19.231Z,0.10
2022-11-20T16:51:47.370Z,0.10
2022-11-20T16:54:20.529Z,0.10
2022-11-20T16:56:51.857Z,0.10
2022-11-20T16:59:20.275Z,0.10
2022-11-20T17:01:48.413Z,0.10
2022-11-20T17:04:16.745Z,0.10
2022-11-20T17:06:46.207Z,0.10
2022-11-20T17:09:14.756Z,0.10
2022-11-20T17:11:43.266Z,0.10
2022-11-20T17:14:13.603Z,0.10
2022-11-20T17:16:42.970Z,0.10
2022-11-20T17:19:13.583Z,0.10
2022-11-20T17:21:44.589Z,0.10
2022-11-20T17:24:15.861Z,0.10
2022-11-20T17:26:45.791Z,0.10
2022-11-20T17:29:17.644Z,0.10
2022-11-20T17:31:47.426Z,0.10
2022-11-20T17:34:17.232Z,0.10
2022-11-20T17:36:46.526Z,0.10
2022-11-20T17:39:16.103Z,0.10
2022-11-20T17:41:45.034Z,0.10
2022-11-20T17:44:14.748Z,0.10
2022-11-20T17:46:42.836Z,0.10
2022-11-20T17:49:10.909Z,0.10
2022-11-20T17:51:38.950Z,0.10
2022-11-20T17:54:08.348Z,0.20
2022-11-20T17:56:54.906Z,0.10
2022-11-20T17:59:24.422Z,0.10
2022-11-20T18:01:52.672Z,0.10
2022-11-20T18:04:20.861Z,0.10
2022-11-20T18:06:48.950Z,0.10
2022-11-20T18:09:20.107Z,0.10
2022-11-20T18:11:48.154Z,0.10
2022-11-20T18:14:32.123Z,0.10
2022-11-20T18:17:06.176Z,0.10
2022-11-20T18:19:41.229Z,0.10
2022-11-20T18:22:18.232Z,0.10
2022-11-20T18:24:46.901Z,0.10
2022-11-20T18:27:17.636Z,0.10
2022-11-20T18:29:48.523Z,0.20
2022-11-20T18:32:17.927Z,0.10
2022-11-20T18:34:46.222Z,0.10
2022-11-20T18:37:16.494Z,0.10
2022-11-20T18:39:44.868Z,0.10
2022-11-20T18:42:33.040Z,0.10
2022-11-20T18:45:02.287Z,0.10
2022-11-20T18:47:37.321Z,0.10
2022-11-20T18:50:08.384Z,0.10
2022-11-20T18:52:41.642Z,0.10
2022-11-20T18:55:11.938Z,0.10
2022-11-20T18:57:40.158Z,0.10
2022-11-20T19:00:10.422Z,0.10
2022-11-20T19:02:42.740Z,0.10
2022-11-20T19:05:12.277Z,0.10
2022-11-20T19:07:40.959Z,0.10
2022-11-20T19:10:09.814Z,0.10
2022-11-20T19:12:38.362Z,0.10
2022-11-20T19:15:07.936Z,0.10
2022-11-20T19:17:36.032Z,0.10
2022-11-20T19:20:06.325Z,0.10
2022-11-20T19:22:34.394Z,0.10
2022-11-20T19:25:02.474Z,0.10
2022-11-20T19:27:30.594Z,0.10
2022-11-20T19:30:03.122Z,0.13
2022-11-20T19:32:32.429Z,0.10
2022-11-20T19:35:00.482Z,0.10
2022-11-20T19:37:29.905Z,0.10
2022-11-20T19:39:59.600Z,0.10
2022-11-20T19:42:27.800Z,0.10
2022-11-20T19:44:55.854Z,0.10
2022-11-20T19:47:35.366Z,0.10
2022-11-20T19:50:12.069Z,0.10
2022-11-20T19:52:41.872Z,0.10
2022-11-20T19:55:10.825Z,0.10
2022-11-20T19:57:38.960Z,0.10
2022-11-20T20:00:09.266Z,0.10
2022-11-20T20:02:37.396Z,0.10
2022-11-20T20:05:06.354Z,0.10
2022-11-20T20:07:34.470Z,0.10
2022-11-20T20:10:04.084Z,0.10
2022-11-20T20:12:32.653Z,0.10
2022-11-20T20:15:00.678Z,0.10
2022-11-20T20:17:28.747Z,0.10
2022-11-20T20:20:00.225Z,0.10
2022-11-20T20:22:28.305Z,0.10
2022-11-20T20:24:56.363Z,0.15
2022-11-20T20:27:25.794Z,0.10
2022-11-20T20:29:53.849Z,0.10
2022-11-20T20:32:22.261Z,0.10
2022-11-20T20:34:50.307Z,0.10
2022-11-20T20:37:18.395Z,0.10
2022-11-20T20:39:46.452Z,0.05
2022-11-20T20:42:14.523Z,0.10
2022-11-20T20:45:01.587Z,0.10
2022-11-20T20:47:32.178Z,0.10
2022-11-20T20:50:00.399Z,0.10
2022-11-20T20:52:28.557Z,0.10
2022-11-20T20:54:56.833Z,0.10
2022-11-20T20:57:27.627Z,0.10
2022-11-20T20:59:57.223Z,0.10
2022-11-20T21:02:25.625Z,0.10
2022-11-20T21:04:53.854Z,0.10
2022-11-20T21:07:22.083Z,0.10
2022-11-20T21:09:50.167Z,0.10
2022-11-20T21:12:18.683Z,0.10
2022-11-20T21:14:46.739Z,0.10
2022-11-20T21:17:16.141Z,0.10
2022-11-20T21:19:44.229Z,0.00
2022-11-20T21:22:11.322Z,0.10
2022-11-20T21:24:39.384Z,0.10
2022-11-20T21:27:07.876Z,0.10
2022-11-20T21:29:35.910Z,0.10
2022-11-20T21:32:04.005Z,0.10
2022-11-20T21:34:33.411Z,0.00
2022-11-20T21:37:01.457Z,0.10
2022-11-20T21:39:30.452Z,0.13
2022-11-20T21:41:58.490Z,0.10
2022-11-20T21:44:31.360Z,0.10
2022-11-20T21:46:59.994Z,0.10
2022-11-20T21:49:28.022Z,0.10
2022-11-20T21:51:57.445Z,0.10
2022-11-20T21:54:26.458Z,0.10
2022-11-20T21:56:54.887Z,0.10
2022-11-20T21:59:23.216Z,0.10
2022-11-20T22:01:51.360Z,0.10
2022-11-20T22:04:19.982Z,0.10
2022-11-20T22:06:48.726Z,0.10
2022-11-20T22:09:18.203Z,0.10
2022-11-20T22:11:46.276Z,0.10
2022-11-20T22:14:22.620Z,0.10
2022-11-20T22:16:53.131Z,0.10
2022-11-20T22:19:22.935Z,0.10
2022-11-20T22:21:54.618Z,0.10
2022-11-20T22:24:24.457Z,0.00
2022-11-20T22:26:52.731Z,0.10
2022-11-20T22:29:22.377Z,0.10
2022-11-20T22:31:55.892Z,0.10
2022-11-20T22:34:24.196Z,0.20
2022-11-20T22:36:52.513Z,0.10
2022-11-20T22:39:22.750Z,0.10
2022-11-20T22:41:52.144Z,0.00
2022-11-20T22:44:20.193Z,0.10
2022-11-20T22:46:48.229Z,0.10
2022-11-20T22:49:16.254Z,0.10
2022-11-20T22:51:44.349Z,0.10
2022-11-20T22:54:13.486Z,0.10
2022-11-20T22:56:41.832Z,0.10
2022-11-20T22:59:11.388Z,0.10
2022-11-20T23:01:39.613Z,0.10
2022-11-20T23:04:11.522Z,0.10
2022-11-20T23:06:39.819Z,0.10
2022-11-20T23:09:09.598Z,0.10
2022-11-20T23:11:37.863Z,0.10
2022-11-20T23:14:08.602Z,0.10
2022-11-20T23:16:37.993Z,0.10
2022-11-20T23:19:09.005Z,0.10
2022-11-20T23:21:39.359Z,0.10
2022-11-20T23:24:09.423Z,0.03
2022-11-20T23:26:40.751Z,0.10
2022-11-20T23:29:09.575Z,0.10
2022-11-20T23:31:39.002Z,0.10
2022-11-20T23:34:07.211Z,0.10
2022-11-20T23:36:35.301Z,0.10
2022-11-20T23:39:03.347Z,0.10
2022-11-20T23:41:31.408Z,0.10
2022-11-20T23:43:59.465Z,0.10
2022-11-20T23:46:27.526Z,0.10
2022-11-20T23:48:56.935Z,0.10
2022-11-20T23:51:25.016Z,0.10
2022-11-20T23:53:53.119Z,0.10
2022-11-20T23:56:21.203Z,0.10
2022-11-20T23:58:49.262Z,0.10
